Delta Virtual Airport Information Service

Bridgetown Grantley Adams International Airport

ICAO: TBPB Country: Barbados
Latitude: 13.0746 Longitude: -59.4924
Latest Arrival : DAC1 (KJFK-TBPB) Latest Departure : DAC550 (TBPB-OMAA)


WX CaptureLIVE
Data provided by noaa.gov | Fetched at 12:11:04

METAR : TBPB 151600Z 09020KT 9999 SCT020 31/22 Q1015 NOSIG

TAF : TBPB 151100Z 1512/1612 08018KT 9999 SCT018 SCT036


Runway Data for TBPB
Data provided by openaviationdata.com

Runway ID Mag Var Hdg Length Elevation Surface ILS Freq ILS Id ILS Slope
9 -15 90° 11027 ft 169 ft Asphalt 110.1 IBGI 3
27 -15 270° 11027 ft 169 ft Asphalt -- -- --

Bridgetown Grantley Adams International Airport, Barbados
Use only for reference purposes



Not for navigational purposes.